createdAt,value
2023-02-27T00:00:48.262Z,96.27
2023-02-27T00:03:18.958Z,96.69
2023-02-27T00:05:45.629Z,96.72
2023-02-27T00:08:12.182Z,96.88
2023-02-27T00:10:38.724Z,97.03
2023-02-27T00:13:05.569Z,96.97
2023-02-27T00:15:32.280Z,97.19
2023-02-27T00:17:59.861Z,96.73
2023-02-27T00:20:26.942Z,96.93
2023-02-27T00:22:56.447Z,96.78
2023-02-27T00:25:22.992Z,96.95
2023-02-27T00:27:49.436Z,96.92
2023-02-27T00:30:16.461Z,97.28
2023-02-27T00:32:43.860Z,97.16
2023-02-27T00:35:12.562Z,97.35
2023-02-27T00:37:39.929Z,97.33
2023-02-27T00:40:11.249Z,97.43
2023-02-27T00:42:37.831Z,97.29
2023-02-27T00:45:08.774Z,96.86
2023-02-27T00:47:35.759Z,96.92
2023-02-27T00:50:02.388Z,97.17
2023-02-27T00:52:35.689Z,97.23
2023-02-27T00:55:02.424Z,97.07
2023-02-27T00:57:28.999Z,97.25
2023-02-27T00:59:55.475Z,97.37
2023-02-27T01:02:22.362Z,97.24
2023-02-27T01:04:49.343Z,97.08
2023-02-27T01:07:15.946Z,96.89
2023-02-27T01:09:42.765Z,97.02
2023-02-27T01:12:13.733Z,97.37
2023-02-27T01:14:40.241Z,97.56
2023-02-27T01:17:10.421Z,98.01
2023-02-27T01:19:36.887Z,97.87
2023-02-27T01:22:03.374Z,97.89
2023-02-27T01:24:29.876Z,98.13
2023-02-27T01:26:56.376Z,97.74
2023-02-27T01:29:22.872Z,97.92
2023-02-27T01:31:50.225Z,98.36
2023-02-27T01:34:17.538Z,98.36
2023-02-27T01:36:47.339Z,97.94
2023-02-27T01:39:19.829Z,97.64
2023-02-27T01:41:46.458Z,98.24
2023-02-27T01:44:14.711Z,98.22
2023-02-27T01:46:42.258Z,97.85
2023-02-27T01:49:15.053Z,97.52
2023-02-27T01:52:05.892Z,97.75
2023-02-27T01:54:43.536Z,97.47
2023-02-27T01:57:13.253Z,97.11
2023-02-27T01:59:42.516Z,97.61
2023-02-27T02:02:17.718Z,97.40
2023-02-27T02:04:44.363Z,97.11
2023-02-27T02:07:15.517Z,97.53
2023-02-27T02:09:45.388Z,97.38
2023-02-27T02:12:14.570Z,97.51
2023-02-27T02:14:41.086Z,97.61
2023-02-27T02:17:35.421Z,97.49
2023-02-27T02:20:07.691Z,97.25
2023-02-27T02:22:59.032Z,97.60
2023-02-27T02:25:34.439Z,97.74
2023-02-27T02:28:22.880Z,97.40
2023-02-27T02:31:15.321Z,97.35
2023-02-27T02:33:50.557Z,97.17
2023-02-27T02:36:26.919Z,97.34
2023-02-27T02:39:12.173Z,97.51
2023-02-27T02:41:45.863Z,97.49
2023-02-27T02:44:28.905Z,97.75
2023-02-27T02:47:17.080Z,97.47
2023-02-27T02:50:11.424Z,97.87
2023-02-27T02:53:05.709Z,97.87
2023-02-27T02:56:05.652Z,97.76
2023-02-27T02:58:42.446Z,97.49
2023-02-27T03:01:15.887Z,97.85
2023-02-27T03:03:56.872Z,97.44
2023-02-27T03:06:30.770Z,97.66
2023-02-27T03:09:15.116Z,98.14
2023-02-27T03:11:45.633Z,97.41
2023-02-27T03:14:21.105Z,97.98
2023-02-27T03:16:53.299Z,98.16
2023-02-27T03:19:26.350Z,98.49
2023-02-27T03:21:59.172Z,98.60
2023-02-27T03:24:35.831Z,98.21
2023-02-27T03:27:04.385Z,98.28
2023-02-27T03:29:39.971Z,97.99
2023-02-27T03:32:17.674Z,97.91
2023-02-27T03:34:45.294Z,98.05
2023-02-27T03:37:20.775Z,98.08
2023-02-27T03:39:52.954Z,98.12
2023-02-27T03:42:22.461Z,98.02
2023-02-27T03:45:05.496Z,97.90
2023-02-27T03:47:33.035Z,97.99
2023-02-27T03:49:59.590Z,97.87
2023-02-27T03:52:28.707Z,97.63
2023-02-27T03:55:10.425Z,98.16
2023-02-27T03:57:38.306Z,98.05
2023-02-27T04:00:11.734Z,97.95
2023-02-27T04:02:39.796Z,98.16
2023-02-27T04:05:06.694Z,98.13
2023-02-27T04:07:40.541Z,98.41
2023-02-27T04:10:15.628Z,97.99
2023-02-27T04:13:01.059Z,98.27
2023-02-27T04:15:36.295Z,98.23
2023-02-27T04:18:25.084Z,98.49
2023-02-27T04:21:17.521Z,97.95
2023-02-27T04:23:54.906Z,98.40
2023-02-27T04:26:33.235Z,97.88
2023-02-27T04:29:07.574Z,98.23
2023-02-27T04:31:48.096Z,98.17
2023-02-27T04:34:31.656Z,97.92
2023-02-27T04:37:06.209Z,98.23
2023-02-27T04:39:39.854Z,98.41
2023-02-27T04:42:12.963Z,98.76
2023-02-27T04:44:41.241Z,98.86
2023-02-27T04:47:10.707Z,99.14
2023-02-27T04:49:58.066Z,98.97
2023-02-27T04:52:44.649Z,99.19
2023-02-27T04:55:11.211Z,99.15
2023-02-27T04:57:42.968Z,99.67
2023-02-27T05:00:12.059Z,99.73
2023-02-27T05:02:43.830Z,99.18
2023-02-27T05:05:14.357Z,99.30
2023-02-27T05:07:49.434Z,99.17
2023-02-27T05:10:26.822Z,99.11
2023-02-27T05:12:58.932Z,98.62
2023-02-27T05:15:33.703Z,98.63
2023-02-27T05:18:04.367Z,98.91
2023-02-27T05:20:54.450Z,99.57
2023-02-27T05:23:30.393Z,99.40
2023-02-27T05:26:19.887Z,98.97
2023-02-27T05:29:01.960Z,99.34
2023-02-27T05:31:38.906Z,99.12
2023-02-27T05:34:16.791Z,98.72
2023-02-27T05:36:53.769Z,98.96
2023-02-27T05:39:24.168Z,99.48
2023-02-27T05:41:58.711Z,99.22
2023-02-27T05:44:33.472Z,98.51
2023-02-27T05:47:04.607Z,98.53
2023-02-27T05:49:42.669Z,99.27
2023-02-27T05:52:13.334Z,99.23
2023-02-27T05:54:51.813Z,99.05
2023-02-27T05:57:24.527Z,99.77
2023-02-27T05:59:57.403Z,99.61
2023-02-27T06:02:24.245Z,99.46
2023-02-27T06:04:51.035Z,98.95
2023-02-27T06:07:18.425Z,99.35
2023-02-27T06:09:45.737Z,100.00
2023-02-27T06:12:12.900Z,99.35
2023-02-27T06:14:39.354Z,99.51
2023-02-27T06:17:05.925Z,99.21
2023-02-27T06:19:32.379Z,99.11
2023-02-27T06:21:58.860Z,99.73
2023-02-27T06:24:26.723Z,99.59
2023-02-27T06:26:53.472Z,99.63
2023-02-27T06:29:20.037Z,99.81
2023-02-27T06:31:46.519Z,99.47
2023-02-27T06:34:16.574Z,99.44
2023-02-27T06:36:43.087Z,99.63
2023-02-27T06:39:11.354Z,99.54
2023-02-27T06:41:37.828Z,100.00
2023-02-27T06:44:04.291Z,100.00
2023-02-27T06:46:31.072Z,99.64
2023-02-27T06:48:57.710Z,99.43
2023-02-27T06:51:24.194Z,99.67
2023-02-27T06:53:50.684Z,99.57
2023-02-27T06:56:17.149Z,99.98
2023-02-27T06:58:43.617Z,99.88
2023-02-27T07:01:13.516Z,99.36
2023-02-27T07:03:40.174Z,99.09
2023-02-27T07:06:06.738Z,100.00
2023-02-27T07:08:33.329Z,100.00
2023-02-27T07:10:59.815Z,100.00
2023-02-27T07:13:26.369Z,100.00
2023-02-27T07:15:52.864Z,100.00
2023-02-27T07:18:20.171Z,100.00
2023-02-27T07:20:51.180Z,100.00
2023-02-27T07:23:18.228Z,100.00
2023-02-27T07:25:46.997Z,100.00
2023-02-27T07:28:13.809Z,100.00
2023-02-27T07:30:41.406Z,100.00
2023-02-27T07:33:08.228Z,100.00
2023-02-27T07:35:34.927Z,100.00
2023-02-27T07:38:01.664Z,100.00
2023-02-27T07:40:28.257Z,100.00
2023-02-27T07:42:54.904Z,100.00
2023-02-27T07:45:22.414Z,100.00
2023-02-27T07:47:49.477Z,100.00
2023-02-27T07:50:16.335Z,100.00
2023-02-27T07:52:43.995Z,100.00
2023-02-27T07:55:12.487Z,100.00
2023-02-27T07:57:39.263Z,100.00
2023-02-27T08:00:06.944Z,99.97
2023-02-27T08:02:33.782Z,99.71
2023-02-27T08:05:00.268Z,100.00
2023-02-27T08:07:26.737Z,100.00
2023-02-27T08:09:53.214Z,100.00
2023-02-27T08:12:19.890Z,100.00
2023-02-27T08:14:46.367Z,100.00
2023-02-27T08:17:12.817Z,100.00
2023-02-27T08:19:39.505Z,100.00
2023-02-27T08:22:05.983Z,100.00
2023-02-27T08:24:32.878Z,100.00
2023-02-27T08:26:59.486Z,100.00
2023-02-27T08:29:26.960Z,100.00
2023-02-27T08:31:53.655Z,100.00
2023-02-27T08:34:20.212Z,100.00
2023-02-27T08:36:46.768Z,100.00
2023-02-27T08:39:14.399Z,100.00
2023-02-27T08:41:40.914Z,100.00
2023-02-27T08:44:07.353Z,100.00
2023-02-27T08:46:33.944Z,100.00
2023-02-27T08:49:00.403Z,100.00
2023-02-27T08:51:27.238Z,100.00
2023-02-27T08:53:58.717Z,100.00
2023-02-27T08:56:27.884Z,100.00
2023-02-27T08:58:55.126Z,100.00
2023-02-27T09:01:28.431Z,100.00
2023-02-27T09:03:55.564Z,100.00
2023-02-27T09:06:23.240Z,100.00
2023-02-27T09:08:50.635Z,100.00
2023-02-27T09:11:17.358Z,100.00
2023-02-27T09:13:43.821Z,100.00
2023-02-27T09:16:10.439Z,100.00
2023-02-27T09:18:36.890Z,100.00
2023-02-27T09:21:03.670Z,100.00
2023-02-27T09:23:30.267Z,100.00
2023-02-27T09:25:56.753Z,100.00
2023-02-27T09:28:23.238Z,100.00
2023-02-27T09:30:49.795Z,100.00
2023-02-27T09:33:16.378Z,100.00
2023-02-27T09:35:42.868Z,100.00
2023-02-27T09:38:09.401Z,100.00
2023-02-27T09:40:41.720Z,100.00
2023-02-27T09:43:15.604Z,100.00
2023-02-27T09:45:42.982Z,100.00
2023-02-27T09:48:24.441Z,100.00
2023-02-27T09:50:52.636Z,100.00
2023-02-27T09:53:31.122Z,100.00
2023-02-27T09:56:07.042Z,100.00
2023-02-27T09:58:51.384Z,100.00
2023-02-27T10:01:30.936Z,100.00
2023-02-27T10:04:26.345Z,100.00
2023-02-27T10:07:39.297Z,100.00
2023-02-27T10:10:35.123Z,100.00
2023-02-27T10:13:19.980Z,100.00
2023-02-27T10:15:49.757Z,100.00
2023-02-27T10:18:28.264Z,100.00
2023-02-27T10:21:18.613Z,100.00
2023-02-27T10:23:51.355Z,100.00
2023-02-27T10:26:27.539Z,98.45
2023-02-27T10:28:54.242Z,99.77
2023-02-27T10:31:25.890Z,99.94
2023-02-27T10:33:53.154Z,99.90
2023-02-27T10:36:33.077Z,99.94
2023-02-27T10:39:16.642Z,99.83
2023-02-27T10:41:44.318Z,98.31
2023-02-27T10:44:16.361Z,97.27
2023-02-27T10:46:43.146Z,96.55
2023-02-27T10:49:19.399Z,95.96
2023-02-27T10:51:47.749Z,95.93
2023-02-27T10:54:25.461Z,93.71
2023-02-27T10:56:58.140Z,93.74
2023-02-27T10:59:33.719Z,93.25
2023-02-27T11:02:26.587Z,91.61
2023-02-27T11:04:55.502Z,88.89
2023-02-27T11:07:50.780Z,89.62
2023-02-27T11:10:21.217Z,88.66
2023-02-27T11:13:23.312Z,88.98
2023-02-27T11:16:10.600Z,89.14
2023-02-27T11:18:39.837Z,90.10
2023-02-27T11:21:20.961Z,89.81
2023-02-27T11:24:01.958Z,89.56
2023-02-27T11:26:40.274Z,89.63
2023-02-27T11:29:18.245Z,89.89
2023-02-27T11:32:04.956Z,91.70
2023-02-27T11:34:38.945Z,89.41
2023-02-27T11:37:28.354Z,90.84
2023-02-27T11:40:16.539Z,91.49
2023-02-27T11:42:50.824Z,90.61
2023-02-27T11:46:11.882Z,91.53
2023-02-27T11:48:19.661Z,93.85
2023-02-27T11:50:56.830Z,92.94
2023-02-27T11:53:53.182Z,91.35
2023-02-27T11:56:28.236Z,89.83
2023-02-27T11:59:14.894Z,90.72
2023-02-27T12:01:53.734Z,88.90
2023-02-27T12:04:34.189Z,88.08
2023-02-27T12:07:12.448Z,88.19
2023-02-27T12:10:10.904Z,87.86
2023-02-27T12:12:52.017Z,88.27
2023-02-27T12:15:44.662Z,87.27
2023-02-27T12:18:11.130Z,85.41
2023-02-27T12:20:52.898Z,86.42
2023-02-27T12:23:26.562Z,86.13
2023-02-27T12:26:01.471Z,87.29
2023-02-27T12:28:37.320Z,88.56
2023-02-27T12:31:29.086Z,89.56
2023-02-27T12:34:29.508Z,87.01
2023-02-27T12:37:03.814Z,84.56
2023-02-27T12:39:32.105Z,83.19
2023-02-27T12:42:25.181Z,87.38
2023-02-27T12:45:06.857Z,88.41
2023-02-27T12:47:37.233Z,91.26
2023-02-27T12:50:16.901Z,88.30
2023-02-27T12:52:50.907Z,91.58
2023-02-27T12:55:26.707Z,90.74
2023-02-27T12:58:25.024Z,88.32
2023-02-27T13:01:09.385Z,86.69
2023-02-27T13:03:42.499Z,88.57
2023-02-27T13:06:37.357Z,89.80
2023-02-27T13:09:15.878Z,89.08
2023-02-27T13:11:54.023Z,86.09
2023-02-27T13:14:29.694Z,87.13
2023-02-27T13:17:07.601Z,84.94
2023-02-27T13:19:42.725Z,85.42
2023-02-27T13:22:18.950Z,86.15
2023-02-27T13:24:51.617Z,86.05
2023-02-27T13:27:36.531Z,86.42
2023-02-27T13:30:02.930Z,87.85
2023-02-27T13:32:47.356Z,87.51
2023-02-27T13:35:29.970Z,88.26
2023-02-27T13:38:05.276Z,86.59
2023-02-27T13:40:36.471Z,87.58
2023-02-27T13:43:24.648Z,86.72
2023-02-27T13:46:23.182Z,86.23
2023-02-27T13:48:54.639Z,86.56
2023-02-27T13:51:36.478Z,87.45
2023-02-27T13:54:25.019Z,87.42
2023-02-27T13:57:03.291Z,89.50
2023-02-27T13:59:54.618Z,88.47
2023-02-27T14:02:56.766Z,87.47
2023-02-27T14:05:30.228Z,87.75
2023-02-27T14:08:04.095Z,87.20
2023-02-27T14:10:31.954Z,87.54
2023-02-27T14:12:59.567Z,88.72
2023-02-27T14:15:26.451Z,86.94
2023-02-27T14:18:13.933Z,86.56
2023-02-27T14:20:44.398Z,87.39
2023-02-27T14:23:16.937Z,87.81
2023-02-27T14:25:49.570Z,88.26
2023-02-27T14:28:37.964Z,88.74
2023-02-27T14:31:08.767Z,88.53
2023-02-27T14:33:48.475Z,88.71
2023-02-27T14:36:24.600Z,88.83
2023-02-27T14:38:55.277Z,88.58
2023-02-27T14:41:31.002Z,88.49
2023-02-27T14:43:58.697Z,88.54
2023-02-27T14:46:29.464Z,89.06
2023-02-27T14:48:59.323Z,88.83
2023-02-27T14:51:26.846Z,89.14
2023-02-27T14:54:04.487Z,88.61
2023-02-27T14:56:31.744Z,88.90
2023-02-27T14:59:04.232Z,88.72
2023-02-27T15:01:35.778Z,88.80
2023-02-27T15:04:04.657Z,88.71
2023-02-27T15:06:40.935Z,89.42
2023-02-27T15:09:08.488Z,89.19
2023-02-27T15:11:41.187Z,89.38
2023-02-27T15:14:08.800Z,90.02
2023-02-27T15:16:38.132Z,89.91
2023-02-27T15:19:39.986Z,90.07
2023-02-27T15:22:21.360Z,90.01
2023-02-27T15:24:52.673Z,90.21
2023-02-27T15:27:22.658Z,90.00
2023-02-27T15:29:59.862Z,89.26
2023-02-27T15:32:42.623Z,89.29
2023-02-27T15:35:26.894Z,89.36
2023-02-27T15:37:59.409Z,89.66
2023-02-27T15:40:32.651Z,90.36
2023-02-27T15:43:00.577Z,91.08
2023-02-27T15:45:31.351Z,91.79
2023-02-27T15:47:57.992Z,91.41
2023-02-27T15:50:28.632Z,92.18
2023-02-27T15:53:03.079Z,92.06
2023-02-27T15:55:34.044Z,92.40
2023-02-27T15:58:03.571Z,92.57
2023-02-27T16:00:31.878Z,93.33
2023-02-27T16:03:02.024Z,92.89
2023-02-27T16:05:36.108Z,92.40
2023-02-27T16:08:05.374Z,93.26
2023-02-27T16:10:40.487Z,93.84
2023-02-27T16:13:25.304Z,95.20
2023-02-27T16:16:21.047Z,94.45
2023-02-27T16:18:51.924Z,94.29
2023-02-27T16:21:20.585Z,93.60
2023-02-27T16:23:47.456Z,93.47
2023-02-27T16:26:31.285Z,94.05
2023-02-27T16:29:15.831Z,94.93
2023-02-27T16:31:54.570Z,94.89
2023-02-27T16:34:44.549Z,94.67
2023-02-27T16:37:33.973Z,95.26
2023-02-27T16:40:00.548Z,95.29
2023-02-27T16:42:27.364Z,95.39
2023-02-27T16:44:53.825Z,95.91
2023-02-27T16:47:20.325Z,96.32
2023-02-27T16:49:47.486Z,96.37
2023-02-27T16:52:13.970Z,95.64
2023-02-27T16:54:43.531Z,95.61
2023-02-27T16:57:10.840Z,95.35
2023-02-27T16:59:40.436Z,95.28
2023-02-27T17:02:13.120Z,95.18
2023-02-27T17:04:39.854Z,95.10
2023-02-27T17:07:06.939Z,95.15
2023-02-27T17:09:33.548Z,95.34
2023-02-27T17:12:00.028Z,95.95
2023-02-27T17:14:29.231Z,95.90
2023-02-27T17:16:55.756Z,96.50
2023-02-27T17:19:22.522Z,96.77
2023-02-27T17:21:49.183Z,97.08
2023-02-27T17:24:18.456Z,96.92
2023-02-27T17:26:44.913Z,97.18
2023-02-27T17:29:12.149Z,96.81
2023-02-27T17:31:38.630Z,96.73
2023-02-27T17:34:05.726Z,97.14
2023-02-27T17:36:35.380Z,97.16
2023-02-27T17:39:02.129Z,97.29
2023-02-27T17:41:30.185Z,97.45
2023-02-27T17:43:58.494Z,97.44
2023-02-27T17:46:27.143Z,97.20
2023-02-27T17:48:56.120Z,97.80
2023-02-27T17:51:23.036Z,96.97
2023-02-27T17:53:49.584Z,96.58
2023-02-27T17:56:16.056Z,95.94
2023-02-27T17:58:45.434Z,95.33
2023-02-27T18:01:16.918Z,95.64
2023-02-27T18:03:46.109Z,95.73
2023-02-27T18:06:13.081Z,95.59
2023-02-27T18:08:39.598Z,95.46
2023-02-27T18:11:13.863Z,95.99
2023-02-27T18:13:41.395Z,96.10
2023-02-27T18:16:08.459Z,96.30
2023-02-27T18:18:40.422Z,95.83
2023-02-27T18:21:12.759Z,95.89
2023-02-27T18:23:39.545Z,95.56
2023-02-27T18:26:07.157Z,95.19
2023-02-27T18:28:35.010Z,95.10
2023-02-27T18:31:01.563Z,95.30
2023-02-27T18:33:28.102Z,95.26
2023-02-27T18:35:54.669Z,94.92
2023-02-27T18:38:21.209Z,94.83
2023-02-27T18:40:47.743Z,94.62
2023-02-27T18:43:14.236Z,94.61
2023-02-27T18:45:41.225Z,94.39
2023-02-27T18:48:09.937Z,94.51
2023-02-27T18:50:36.456Z,94.44
2023-02-27T18:53:03.210Z,94.25
2023-02-27T18:55:29.644Z,94.07
2023-02-27T18:57:56.206Z,93.32
2023-02-27T19:00:24.150Z,93.69
2023-02-27T19:02:51.051Z,94.07
2023-02-27T19:05:18.053Z,94.51
2023-02-27T19:07:44.594Z,94.60
2023-02-27T19:10:11.721Z,93.65
2023-02-27T19:12:38.346Z,93.82
2023-02-27T19:15:05.369Z,93.26
2023-02-27T19:17:32.451Z,93.13
2023-02-27T19:19:59.623Z,92.72
2023-02-27T19:22:30.387Z,92.60
2023-02-27T19:24:57.310Z,93.00
2023-02-27T19:27:23.934Z,93.28
2023-02-27T19:29:50.983Z,93.30
2023-02-27T19:32:17.693Z,93.12
2023-02-27T19:34:44.342Z,92.60
2023-02-27T19:37:10.817Z,92.74
2023-02-27T19:39:37.315Z,92.56
2023-02-27T19:42:03.874Z,92.56
2023-02-27T19:44:30.357Z,92.31
2023-02-27T19:46:56.867Z,92.29
2023-02-27T19:49:23.559Z,92.72
2023-02-27T19:51:50.112Z,93.42
2023-02-27T19:54:16.682Z,93.53
2023-02-27T19:56:43.481Z,93.77
2023-02-27T19:59:12.310Z,94.41
2023-02-27T20:01:39.489Z,94.65
2023-02-27T20:04:07.820Z,94.72
2023-02-27T20:06:43.904Z,94.45
2023-02-27T20:09:15.927Z,94.72
2023-02-27T20:11:43.935Z,94.46
2023-02-27T20:14:11.403Z,94.68
2023-02-27T20:16:38.215Z,94.48
2023-02-27T20:19:06.339Z,94.26
2023-02-27T20:21:34.160Z,94.17
2023-02-27T20:24:04.613Z,94.36
2023-02-27T20:26:43.156Z,93.92
2023-02-27T20:29:19.346Z,93.73
2023-02-27T20:31:47.802Z,93.30
2023-02-27T20:34:21.871Z,93.29
2023-02-27T20:36:53.812Z,93.63
2023-02-27T20:39:20.937Z,94.04
2023-02-27T20:41:47.760Z,94.11
2023-02-27T20:44:17.085Z,94.18
2023-02-27T20:46:48.144Z,94.14
2023-02-27T20:49:16.585Z,93.94
2023-02-27T20:51:43.402Z,93.67
2023-02-27T20:54:14.156Z,93.58
2023-02-27T20:56:42.039Z,93.44
2023-02-27T20:59:16.453Z,93.16
2023-02-27T21:01:51.182Z,92.95
2023-02-27T21:04:46.193Z,92.56
2023-02-27T21:07:14.724Z,92.68
2023-02-27T21:09:41.467Z,91.97
2023-02-27T21:12:09.163Z,91.05
2023-02-27T21:14:35.874Z,90.56
2023-02-27T21:17:02.430Z,90.68
2023-02-27T21:19:30.725Z,90.66
2023-02-27T21:21:59.768Z,90.29
2023-02-27T21:24:26.325Z,90.88
2023-02-27T21:26:52.853Z,90.95
2023-02-27T21:29:21.506Z,89.07
2023-02-27T21:31:49.653Z,88.91
2023-02-27T21:34:22.704Z,88.29
2023-02-27T21:36:50.152Z,88.15
2023-02-27T21:39:19.871Z,88.25
2023-02-27T21:41:49.738Z,87.54
2023-02-27T21:44:19.486Z,87.47
2023-02-27T21:46:46.261Z,87.44
2023-02-27T21:49:22.532Z,87.37
2023-02-27T21:51:49.381Z,87.52
2023-02-27T21:54:17.342Z,87.23
2023-02-27T21:56:45.597Z,87.35
2023-02-27T21:59:13.055Z,87.46
2023-02-27T22:01:39.706Z,87.90
2023-02-27T22:04:07.304Z,88.04
2023-02-27T22:06:37.142Z,87.63
2023-02-27T22:09:05.572Z,88.11
2023-02-27T22:11:34.154Z,88.00
2023-02-27T22:14:01.034Z,87.94
2023-02-27T22:16:27.820Z,87.89
2023-02-27T22:18:54.311Z,87.89
2023-02-27T22:21:24.096Z,88.03
2023-02-27T22:23:50.926Z,88.01
2023-02-27T22:26:24.166Z,88.27
2023-02-27T22:28:52.336Z,88.88
2023-02-27T22:31:21.689Z,88.73
2023-02-27T22:33:50.435Z,88.49
2023-02-27T22:36:22.467Z,88.46
2023-02-27T22:38:49.161Z,88.39
2023-02-27T22:41:21.425Z,88.87
2023-02-27T22:43:48.090Z,89.04
2023-02-27T22:46:17.816Z,89.37
2023-02-27T22:48:44.653Z,89.58
2023-02-27T22:51:14.338Z,89.66
2023-02-27T22:53:46.164Z,89.48
2023-02-27T22:56:15.489Z,89.69
2023-02-27T22:58:43.741Z,90.29
2023-02-27T23:01:26.205Z,90.95
2023-02-27T23:03:55.783Z,91.25
2023-02-27T23:06:25.457Z,91.51
2023-02-27T23:08:55.341Z,91.74
2023-02-27T23:11:21.959Z,91.79
2023-02-27T23:13:48.750Z,92.03
2023-02-27T23:16:15.435Z,92.20
2023-02-27T23:18:54.322Z,92.36
2023-02-27T23:21:27.298Z,92.46
2023-02-27T23:23:59.837Z,91.97
2023-02-27T23:26:29.220Z,91.83
2023-02-27T23:28:56.570Z,92.11
2023-02-27T23:31:23.229Z,92.80
2023-02-27T23:33:50.201Z,92.43
2023-02-27T23:36:17.714Z,92.43
2023-02-27T23:38:46.523Z,92.67
2023-02-27T23:41:16.790Z,92.44
2023-02-27T23:43:47.552Z,92.07
2023-02-27T23:46:16.018Z,92.03
2023-02-27T23:48:43.389Z,92.02
2023-02-27T23:51:11.137Z,92.06
2023-02-27T23:53:39.261Z,92.16
2023-02-27T23:56:27.014Z,92.25
2023-02-27T23:58:58.871Z,92.46
